createdAt,value
2023-03-12T00:04:51.958Z,0.80
2023-03-12T00:31:54.401Z,-0.20
2023-03-12T00:49:05.917Z,-1.20
2023-03-12T00:51:32.907Z,0.40
2023-03-12T00:54:00.131Z,0.40
2023-03-12T01:01:22.584Z,0.40
2023-03-12T01:03:53.265Z,0.40
2023-03-12T01:06:25.090Z,0.40
2023-03-12T01:09:01.409Z,0.60
2023-03-12T01:11:33.075Z,0.40
2023-03-12T01:19:01.860Z,0.90
2023-03-12T01:21:30.868Z,0.20
2023-03-12T01:24:00.510Z,0.20
2023-03-12T01:33:53.477Z,0.20
2023-03-12T01:36:27.330Z,0.00
2023-03-12T01:38:56.869Z,0.20
2023-03-12T01:41:27.265Z,0.20
2023-03-12T01:44:03.785Z,0.10
2023-03-12T01:46:34.466Z,0.00
2023-03-12T01:49:28.848Z,0.10
2023-03-12T01:52:13.917Z,0.10
2023-03-12T01:54:55.059Z,0.10
2023-03-12T01:57:25.004Z,1.90
2023-03-12T01:59:56.091Z,0.10
2023-03-12T02:02:27.134Z,-1.50
2023-03-12T02:05:20.664Z,-0.50
2023-03-12T02:10:16.978Z,0.00
2023-03-12T02:12:44.331Z,-1.00
2023-03-12T02:15:12.120Z,-0.10
2023-03-12T02:20:17.088Z,-0.10
2023-03-12T02:22:49.747Z,2.40
2023-03-12T02:25:31.890Z,-0.10
2023-03-12T02:28:01.969Z,-0.10
2023-03-12T02:30:31.468Z,-0.20
2023-03-12T02:33:01.756Z,-0.20
2023-03-12T02:37:56.973Z,-0.20
2023-03-12T02:40:27.994Z,-0.30
2023-03-12T02:42:55.833Z,-0.10
2023-03-12T02:55:23.186Z,-0.70
2023-03-12T03:20:11.326Z,-0.30
2023-03-12T03:22:39.364Z,2.30
2023-03-12T03:25:07.926Z,-0.30
2023-03-12T03:27:35.058Z,-1.10
2023-03-12T03:42:28.178Z,-0.30
2023-03-12T03:52:56.352Z,-0.10
2023-03-12T03:56:34.739Z,2.60
2023-03-12T03:59:15.588Z,-0.20
2023-03-12T04:04:19.913Z,-0.10
2023-03-12T04:09:51.157Z,-0.10
2023-03-12T04:12:21.550Z,-0.20
2023-03-12T04:22:15.322Z,1.80
2023-03-12T04:27:16.189Z,-0.50
2023-03-12T04:37:29.670Z,-0.70
2023-03-12T04:42:37.280Z,-0.80
2023-03-12T04:45:06.441Z,-0.80
2023-03-12T05:07:23.007Z,-1.20
2023-03-12T05:32:04.111Z,-1.30
2023-03-12T05:37:00.389Z,-1.30
2023-03-12T05:49:26.847Z,-1.00
2023-03-12T06:01:59.548Z,-1.30
2023-03-12T06:09:39.139Z,-0.90
2023-03-12T06:17:02.381Z,-0.70
2023-03-12T06:19:29.418Z,-1.30
2023-03-12T06:27:00.671Z,1.90
2023-03-12T06:31:56.013Z,-0.10
2023-03-12T06:39:21.140Z,0.50
2023-03-12T06:44:15.882Z,-0.20
2023-03-12T06:49:11.893Z,0.10
2023-03-12T06:51:38.842Z,0.90
2023-03-12T06:54:06.050Z,0.90
2023-03-12T07:01:28.133Z,0.90
2023-03-12T07:06:24.241Z,1.10
2023-03-12T07:23:50.827Z,1.30
2023-03-12T07:28:49.485Z,2.50
2023-03-12T07:36:12.227Z,1.30
2023-03-12T07:46:01.577Z,1.20
2023-03-12T07:48:31.683Z,1.00
2023-03-12T07:53:28.438Z,1.20
2023-03-12T08:08:13.672Z,1.90
2023-03-12T08:10:40.597Z,3.30
2023-03-12T08:13:08.005Z,3.50
2023-03-12T08:18:02.470Z,1.90
2023-03-12T08:22:57.063Z,2.50
2023-03-12T08:40:15.764Z,0.70
2023-03-12T08:42:45.888Z,1.80
2023-03-12T08:50:11.650Z,1.80
2023-03-12T08:52:39.140Z,2.90
2023-03-12T09:09:55.660Z,2.30
2023-03-12T09:15:08.999Z,2.40
2023-03-12T09:20:08.347Z,2.90
2023-03-12T09:22:37.157Z,2.60
2023-03-12T09:25:05.482Z,2.50
2023-03-12T09:27:48.535Z,3.80
2023-03-12T09:30:18.863Z,2.60
2023-03-12T09:35:16.272Z,3.90
2023-03-12T09:40:20.389Z,1.30
2023-03-12T09:42:52.289Z,3.00
2023-03-12T09:45:26.460Z,3.10
2023-03-12T09:47:57.109Z,3.10
2023-03-12T09:50:33.515Z,3.60
2023-03-12T09:53:28.271Z,1.90
2023-03-12T09:55:57.676Z,2.90
2023-03-12T09:58:30.262Z,3.10
2023-03-12T10:01:07.004Z,3.20
2023-03-12T10:03:40.455Z,3.80
2023-03-12T10:06:20.849Z,3.10
2023-03-12T10:08:53.610Z,1.70
2023-03-12T10:11:55.373Z,3.00
2023-03-12T10:14:28.264Z,3.20
2023-03-12T10:17:17.274Z,4.10
2023-03-12T10:20:07.769Z,4.50
2023-03-12T10:23:11.246Z,3.90
2023-03-12T10:25:53.711Z,4.00
2023-03-12T10:28:45.276Z,4.10
2023-03-12T10:31:21.551Z,4.20
2023-03-12T10:33:55.166Z,4.30
2023-03-12T10:36:39.536Z,5.40
2023-03-12T10:39:20.071Z,4.10
2023-03-12T10:41:48.736Z,4.90
2023-03-12T10:44:22.672Z,4.90
2023-03-12T10:47:01.353Z,5.50
2023-03-12T10:49:31.743Z,7.30
2023-03-12T10:52:12.889Z,6.20
2023-03-12T10:54:41.045Z,6.30
2023-03-12T10:57:08.775Z,7.10
2023-03-12T10:59:38.644Z,5.80
2023-03-12T11:02:29.034Z,5.70
2023-03-12T11:04:56.293Z,5.50
2023-03-12T11:07:35.597Z,8.40
2023-03-12T11:10:08.622Z,5.70
2023-03-12T11:12:38.433Z,5.10
2023-03-12T11:15:40.254Z,3.80
2023-03-12T11:18:38.787Z,6.40
2023-03-12T11:21:10.025Z,6.10
2023-03-12T11:23:43.919Z,4.70
2023-03-12T11:26:20.276Z,5.20
2023-03-12T11:28:49.171Z,3.70
2023-03-12T11:31:25.803Z,4.60
2023-03-12T11:33:56.164Z,5.40
2023-03-12T11:36:31.589Z,3.50
2023-03-12T11:39:21.173Z,4.00
2023-03-12T11:42:13.263Z,4.90
2023-03-12T11:45:08.971Z,4.50
2023-03-12T11:48:18.782Z,4.50
2023-03-12T11:51:10.560Z,4.50
2023-03-12T11:54:02.400Z,5.20
2023-03-12T11:56:34.092Z,5.10
2023-03-12T11:59:24.325Z,5.10
2023-03-12T12:02:09.078Z,4.50
2023-03-12T12:05:04.159Z,5.20
2023-03-12T12:07:49.131Z,4.60
2023-03-12T12:10:41.779Z,2.70
2023-03-12T12:13:26.764Z,4.20
2023-03-12T12:16:15.124Z,5.60
2023-03-12T12:19:05.740Z,4.60
2023-03-12T12:21:56.996Z,4.70
2023-03-12T12:24:53.534Z,5.70
2023-03-12T12:27:24.672Z,4.80
2023-03-12T12:30:27.569Z,4.90
2023-03-12T12:33:37.906Z,4.60
2023-03-12T12:38:52.600Z,5.90
2023-03-12T12:41:25.314Z,5.10
2023-03-12T12:44:05.352Z,5.20
2023-03-12T12:46:39.881Z,6.90
2023-03-12T12:49:14.771Z,5.20
2023-03-12T12:51:50.610Z,5.10
2023-03-12T12:54:27.041Z,5.20
2023-03-12T12:56:58.175Z,6.50
2023-03-12T13:01:54.977Z,4.80
2023-03-12T13:04:36.088Z,4.80
2023-03-12T13:07:12.528Z,4.90
2023-03-12T13:09:52.456Z,0.40
2023-03-12T13:12:29.839Z,4.90
2023-03-12T13:14:59.362Z,4.80
2023-03-12T13:17:59.258Z,3.80
2023-03-12T13:20:51.767Z,4.90
2023-03-12T13:23:59.866Z,5.50
2023-03-12T13:26:36.764Z,4.80
2023-03-12T13:29:38.602Z,5.00
2023-03-12T13:32:49.600Z,5.00
2023-03-12T13:38:15.174Z,4.70
2023-03-12T13:40:51.346Z,4.60
2023-03-12T13:43:33.358Z,4.50
2023-03-12T13:46:26.020Z,4.40
2023-03-12T13:48:59.589Z,4.30
2023-03-12T13:51:27.788Z,4.30
2023-03-12T13:54:44.826Z,4.20
2023-03-12T13:57:25.344Z,4.40
2023-03-12T14:02:30.848Z,5.10
2023-03-12T14:05:11.754Z,5.60
2023-03-12T14:08:04.580Z,4.90
2023-03-12T14:11:43.857Z,4.30
2023-03-12T14:14:20.091Z,4.30
2023-03-12T14:17:14.304Z,5.10
2023-03-12T14:19:54.263Z,4.20
2023-03-12T14:22:39.728Z,4.10
2023-03-12T14:29:00.327Z,4.10
2023-03-12T14:32:03.706Z,4.10
2023-03-12T14:34:42.381Z,4.10
2023-03-12T14:37:37.801Z,4.10
2023-03-12T14:40:26.924Z,4.10
2023-03-12T14:42:55.768Z,5.90
2023-03-12T14:48:00.615Z,4.10
2023-03-12T14:50:41.366Z,4.10
2023-03-12T14:53:28.570Z,4.10
2023-03-12T14:56:06.957Z,4.10
2023-03-12T14:58:36.684Z,4.10
2023-03-12T15:01:12.019Z,3.10
2023-03-12T15:04:03.852Z,4.00
2023-03-12T15:06:38.775Z,3.90
2023-03-12T15:11:37.978Z,3.50
2023-03-12T15:14:09.138Z,3.20
2023-03-12T15:21:44.979Z,3.00
2023-03-12T15:24:41.869Z,3.00
2023-03-12T15:27:43.636Z,2.90
2023-03-12T15:36:51.372Z,2.80
2023-03-12T15:43:16.883Z,2.60
2023-03-12T15:46:40.515Z,2.50
2023-03-12T15:55:36.139Z,2.40
2023-03-12T16:00:41.896Z,2.40
2023-03-12T16:03:28.942Z,2.40
2023-03-12T16:08:43.665Z,2.30
2023-03-12T16:11:49.331Z,2.30
2023-03-12T16:14:35.109Z,2.20
2023-03-12T16:28:22.319Z,1.80
2023-03-12T16:31:52.437Z,1.70
2023-03-12T16:34:43.299Z,1.80
2023-03-12T16:37:42.020Z,1.80
2023-03-12T16:40:33.220Z,1.70
2023-03-12T16:43:31.481Z,1.70
2023-03-12T16:46:15.358Z,2.30
2023-03-12T16:48:47.052Z,1.70
2023-03-12T17:12:02.287Z,1.80
2023-03-12T17:19:36.455Z,1.60
2023-03-12T17:31:56.116Z,1.70
2023-03-12T17:44:17.180Z,1.70
2023-03-12T17:54:22.423Z,1.30
2023-03-12T17:56:49.407Z,3.00
2023-03-12T18:01:53.937Z,1.70
2023-03-12T18:07:22.548Z,1.80
2023-03-12T18:10:23.794Z,1.80
2023-03-12T18:19:56.982Z,1.90
2023-03-12T18:25:13.255Z,2.60
2023-03-12T18:28:16.300Z,3.10
2023-03-12T18:30:51.536Z,2.00
2023-03-12T18:34:09.185Z,2.00
2023-03-12T18:37:24.466Z,2.00
2023-03-12T18:40:47.842Z,2.10
2023-03-12T18:43:30.108Z,2.10
2023-03-12T18:47:03.109Z,2.10
2023-03-12T18:50:08.121Z,2.20
2023-03-12T18:52:58.421Z,2.20
2023-03-12T18:56:31.781Z,2.20
2023-03-12T18:59:48.703Z,2.20
2023-03-12T19:02:34.072Z,2.30
2023-03-12T19:05:14.526Z,2.30
2023-03-12T19:16:16.568Z,2.40
2023-03-12T19:21:16.973Z,2.50
2023-03-12T19:24:34.281Z,2.50
2023-03-12T19:35:45.690Z,2.70
2023-03-12T19:38:41.708Z,2.70
2023-03-12T19:44:15.231Z,2.80
2023-03-12T19:46:45.462Z,2.80
2023-03-12T19:50:04.781Z,2.80
2023-03-12T19:52:38.478Z,2.90
2023-03-12T19:55:45.343Z,2.90
2023-03-12T19:58:19.371Z,2.90
2023-03-12T20:00:51.273Z,3.00
2023-03-12T20:08:40.385Z,3.10
2023-03-12T20:11:51.026Z,3.20
2023-03-12T20:14:42.841Z,3.20
2023-03-12T20:23:49.402Z,3.40
2023-03-12T20:32:37.967Z,3.50
2023-03-12T20:35:05.470Z,3.10
2023-03-12T20:37:39.569Z,3.00
2023-03-12T20:43:09.196Z,3.70
2023-03-12T20:49:41.469Z,4.20
2023-03-12T20:57:13.370Z,3.40
2023-03-12T20:59:40.371Z,4.20
2023-03-12T21:04:35.480Z,4.60
2023-03-12T21:19:30.061Z,4.70
2023-03-12T21:22:23.032Z,5.40
2023-03-12T21:24:50.508Z,4.80
2023-03-12T21:29:56.711Z,5.00
2023-03-12T21:32:36.573Z,5.00
2023-03-12T21:35:12.991Z,5.10
2023-03-12T21:40:13.435Z,5.20
2023-03-12T21:48:26.050Z,6.20
2023-03-12T21:51:21.250Z,5.30
2023-03-12T21:54:21.523Z,5.40
2023-03-12T22:01:50.600Z,5.50
2023-03-12T22:06:54.644Z,5.60
2023-03-12T22:09:24.715Z,6.80
2023-03-12T22:11:51.614Z,5.60
2023-03-12T22:14:18.869Z,5.70
2023-03-12T22:16:45.878Z,4.30
2023-03-12T22:21:42.407Z,5.00
2023-03-12T22:24:10.686Z,5.70
2023-03-12T22:41:39.580Z,5.90
2023-03-12T22:44:07.705Z,5.90
2023-03-12T22:46:46.726Z,5.90
2023-03-12T22:49:42.560Z,6.00
2023-03-12T22:52:41.212Z,6.00
2023-03-12T23:03:41.919Z,7.10
2023-03-12T23:06:15.764Z,2.90
2023-03-12T23:13:44.273Z,6.20
2023-03-12T23:16:14.867Z,6.30
2023-03-12T23:18:43.055Z,4.20
2023-03-12T23:21:19.289Z,6.30
2023-03-12T23:23:47.170Z,6.20
2023-03-12T23:26:18.262Z,6.30
2023-03-12T23:31:16.973Z,6.30
2023-03-12T23:33:44.287Z,6.20
2023-03-12T23:36:14.197Z,6.30
2023-03-12T23:41:15.306Z,6.40
2023-03-12T23:46:11.298Z,6.50
2023-03-12T23:48:39.291Z,6.50
2023-03-12T23:51:18.459Z,6.50
2023-03-12T23:53:47.394Z,6.30
2023-03-12T23:56:20.834Z,6.50
2023-03-12T23:58:48.546Z,6.70
